UTN105 UKHH-UKBB
Flight info
| Callsign | UTN105 |
|---|---|
| Flight time | N/A |
| Altitude | 32000 |
| Route | UDVIR P142 GOTAP |
| Aircraft | B738/M-SDE2E3FGHIRWXY/LB1 |
Departure
| Time | 2026-04-21 11:54 |
|---|---|
| Airport | Kharkiv International Airport (UKHH) |
Arrival
| Time | N/A |
|---|---|
| Airport | Boryspil International Airport (UKBB) |
| Time | Latitude | Longitude | Altitude | Speed | Heading |
|---|---|---|---|---|---|
| 2026-04-21 11:16 | 49.92240 | 36.28104 | 491 ft | 0 kts | 240° |
| 2026-04-21 11:35 | 49.92242 | 36.28108 | 491 ft | 1 kts | 241° |
| 2026-04-21 11:35 | 49.92249 | 36.28128 | 492 ft | 2 kts | 246° |
| 2026-04-21 11:36 | 49.92250 | 36.28151 | 492 ft | 2 kts | 276° |
| 2026-04-21 11:36 | 49.92246 | 36.28173 | 492 ft | 2 kts | 301° |
| 2026-04-21 11:36 | 49.92236 | 36.28190 | 492 ft | 1 kts | 324° |
| 2026-04-21 11:36 | 49.92231 | 36.28195 | 492 ft | 1 kts | 332° |
| 2026-04-21 11:37 | 49.92229 | 36.28197 | 492 ft | 0 kts | 330° |
| 2026-04-21 11:50 | 49.92260 | 36.28170 | 493 ft | 17 kts | 330° |
| 2026-04-21 11:51 | 49.92366 | 36.28102 | 495 ft | 14 kts | 356° |
| 2026-04-21 11:51 | 49.92397 | 36.28100 | 496 ft | 0 kts | 357° |
| 2026-04-21 11:51 | 49.92399 | 36.28099 | 496 ft | 2 kts | 355° |
| 2026-04-21 11:51 | 49.92434 | 36.28010 | 495 ft | 21 kts | 266° |
| 2026-04-21 11:52 | 49.92421 | 36.27736 | 492 ft | 25 kts | 264° |
| 2026-04-21 11:52 | 49.92413 | 36.27467 | 486 ft | 19 kts | 287° |
| 2026-04-21 11:52 | 49.92489 | 36.27369 | 484 ft | 13 kts | 350° |
| 2026-04-21 11:52 | 49.92545 | 36.27418 | 487 ft | 6 kts | 65° |
| 2026-04-21 11:53 | 49.92553 | 36.27466 | 489 ft | 6 kts | 80° |
| 2026-04-21 11:53 | 49.92594 | 36.27874 | 496 ft | 73 kts | 82° |
| 2026-04-21 11:53 | 49.92683 | 36.29003 | 503 ft | 136 kts | 82° |
| 2026-04-21 11:53 | 49.92781 | 36.30634 | 889 ft | 156 kts | 82° |
| 2026-04-21 11:54 | 49.92942 | 36.32308 | 1422 ft | 169 kts | 75° |
| 2026-04-21 11:54 | 49.93183 | 36.34183 | 1997 ft | 184 kts | 77° |
| 2026-04-21 11:54 | 49.93376 | 36.36156 | 2567 ft | 194 kts | 80° |
| 2026-04-21 11:54 | 49.93545 | 36.38277 | 3149 ft | 203 kts | 80° |
| 2026-04-21 11:55 | 49.93720 | 36.40524 | 3525 ft | 225 kts | 81° |
| 2026-04-21 11:55 | 49.93894 | 36.43025 | 4049 ft | 239 kts | 82° |
| 2026-04-21 11:55 | 49.94132 | 36.45608 | 4698 ft | 247 kts | 74° |
| 2026-04-21 11:55 | 49.94935 | 36.47951 | 5309 ft | 253 kts | 41° |
| 2026-04-21 11:56 | 49.96426 | 36.49444 | 5783 ft | 266 kts | 25° |
| 2026-04-21 11:56 | 49.98146 | 36.50469 | 6055 ft | 266 kts | 12° |
| 2026-04-21 11:56 | 49.99976 | 36.50344 | 6046 ft | 263 kts | 341° |
| 2026-04-21 11:56 | 50.01493 | 36.48813 | 6047 ft | 263 kts | 315° |
| 2026-04-21 11:57 | 50.02593 | 36.46574 | 6046 ft | 265 kts | 306° |
| 2026-04-21 11:57 | 50.03679 | 36.44280 | 6042 ft | 262 kts | 311° |
| 2026-04-21 11:57 | 50.05080 | 36.42460 | 6039 ft | 261 kts | 333° |
| 2026-04-21 11:57 | 50.06786 | 36.41596 | 6039 ft | 260 kts | 350° |
| 2026-04-21 11:58 | 50.08597 | 36.41041 | 6133 ft | 272 kts | 340° |
| 2026-04-21 11:58 | 50.10107 | 36.39380 | 7090 ft | 268 kts | 310° |
| 2026-04-21 11:58 | 50.11054 | 36.36887 | 7892 ft | 270 kts | 290° |
| 2026-04-21 11:58 | 50.11492 | 36.34062 | 8636 ft | 274 kts | 277° |
| 2026-04-21 11:59 | 50.11416 | 36.31118 | 9381 ft | 277 kts | 256° |
| 2026-04-21 11:59 | 50.10576 | 36.28456 | 10115 ft | 281 kts | 233° |
| 2026-04-21 11:59 | 50.09176 | 36.26265 | 10582 ft | 295 kts | 220° |
| 2026-04-21 11:59 | 50.07526 | 36.24246 | 10973 ft | 310 kts | 220° |
| 2026-04-21 12:00 | 50.06006 | 36.21762 | 11330 ft | 324 kts | 238° |
| 2026-04-21 12:00 | 50.05152 | 36.18523 | 11725 ft | 336 kts | 256° |
| 2026-04-21 12:00 | 50.04787 | 36.14908 | 12380 ft | 342 kts | 264° |
| 2026-04-21 12:00 | 50.04587 | 36.11214 | 13179 ft | 343 kts | 265° |
| 2026-04-21 12:01 | 50.04393 | 36.07520 | 13922 ft | 347 kts | 264° |
| 2026-04-21 12:01 | 50.04157 | 36.03806 | 14723 ft | 349 kts | 263° |
| 2026-04-21 12:01 | 50.03884 | 36.00071 | 15500 ft | 351 kts | 263° |
| 2026-04-21 12:01 | 50.03685 | 35.96262 | 16255 ft | 354 kts | 267° |
| 2026-04-21 12:02 | 50.03682 | 35.92473 | 16979 ft | 358 kts | 271° |
| 2026-04-21 12:02 | 50.03976 | 35.84696 | 18379 ft | 365 kts | 273° |
| 2026-04-21 12:02 | 50.04164 | 35.80770 | 19098 ft | 367 kts | 273° |
| 2026-04-21 12:03 | 50.04345 | 35.76848 | 19765 ft | 370 kts | 273° |
| 2026-04-21 12:03 | 50.04519 | 35.72846 | 20413 ft | 374 kts | 272° |
| 2026-04-21 12:03 | 50.04685 | 35.68826 | 21055 ft | 376 kts | 272° |
| 2026-04-21 12:03 | 50.04849 | 35.64732 | 21688 ft | 379 kts | 272° |
| 2026-04-21 12:04 | 50.05008 | 35.60663 | 22269 ft | 383 kts | 272° |
| 2026-04-21 12:04 | 50.05170 | 35.56491 | 22861 ft | 386 kts | 271° |
| 2026-04-21 12:04 | 50.05328 | 35.52348 | 23432 ft | 388 kts | 271° |
| 2026-04-21 12:04 | 50.05486 | 35.48154 | 23981 ft | 391 kts | 271° |
| 2026-04-21 12:05 | 50.05646 | 35.43896 | 24551 ft | 393 kts | 271° |
| 2026-04-21 12:05 | 50.05801 | 35.39694 | 25033 ft | 397 kts | 271° |
| 2026-04-21 12:05 | 50.05959 | 35.35378 | 25494 ft | 401 kts | 271° |
| 2026-04-21 12:05 | 50.06115 | 35.31063 | 25987 ft | 404 kts | 271° |
| 2026-04-21 12:06 | 50.06271 | 35.26684 | 26450 ft | 407 kts | 271° |
| 2026-04-21 12:06 | 50.06426 | 35.22286 | 26882 ft | 411 kts | 271° |
| 2026-04-21 12:06 | 50.06643 | 35.17859 | 27343 ft | 414 kts | 274° |
| 2026-04-21 12:06 | 50.07034 | 35.13398 | 27731 ft | 419 kts | 277° |
| 2026-04-21 12:07 | 50.07532 | 35.08928 | 28145 ft | 423 kts | 279° |
| 2026-04-21 12:07 | 50.08075 | 35.04442 | 28570 ft | 426 kts | 279° |
| 2026-04-21 12:07 | 50.08635 | 34.99905 | 29109 ft | 425 kts | 279° |
| 2026-04-21 12:07 | 50.09182 | 34.95440 | 29689 ft | 423 kts | 280° |
| 2026-04-21 12:08 | 50.09723 | 34.90958 | 30155 ft | 422 kts | 280° |
| 2026-04-21 12:08 | 50.10251 | 34.86494 | 30605 ft | 421 kts | 280° |
| 2026-04-21 12:08 | 50.10777 | 34.81986 | 31019 ft | 421 kts | 280° |
| 2026-04-21 12:08 | 50.11290 | 34.77536 | 31292 ft | 423 kts | 280° |
| 2026-04-21 12:09 | 50.11804 | 34.73041 | 31542 ft | 424 kts | 280° |
| 2026-04-21 12:09 | 50.12317 | 34.68518 | 31807 ft | 424 kts | 279° |
| 2026-04-21 12:09 | 50.12828 | 34.64002 | 31892 ft | 427 kts | 279° |
| 2026-04-21 12:10 | 50.13864 | 34.54952 | 31924 ft | 424 kts | 280° |
| 2026-04-21 12:10 | 50.14901 | 34.45910 | 31929 ft | 424 kts | 280° |
| 2026-04-21 12:11 | 50.15924 | 34.36923 | 31931 ft | 424 kts | 280° |
| 2026-04-21 12:11 | 50.16944 | 34.27873 | 31925 ft | 424 kts | 279° |
| 2026-04-21 12:12 | 50.17952 | 34.18854 | 31918 ft | 425 kts | 279° |
| 2026-04-21 12:12 | 50.18953 | 34.09821 | 31917 ft | 426 kts | 279° |
| 2026-04-21 12:13 | 50.19955 | 34.00717 | 31922 ft | 426 kts | 279° |
| 2026-04-21 12:13 | 50.20944 | 33.91664 | 31930 ft | 426 kts | 280° |
| 2026-04-21 12:14 | 50.21655 | 33.82513 | 31930 ft | 425 kts | 274° |
| 2026-04-21 12:14 | 50.21942 | 33.73357 | 31929 ft | 426 kts | 273° |
| 2026-04-21 12:15 | 50.22168 | 33.64128 | 31930 ft | 426 kts | 273° |
| 2026-04-21 12:15 | 50.22414 | 33.54925 | 31936 ft | 427 kts | 274° |
| 2026-04-21 12:16 | 50.22681 | 33.45719 | 31930 ft | 427 kts | 273° |
| 2026-04-21 12:16 | 50.22953 | 33.36470 | 31937 ft | 427 kts | 274° |
| 2026-04-21 12:17 | 50.23223 | 33.27241 | 31938 ft | 427 kts | 273° |
| 2026-04-21 12:17 | 50.23488 | 33.17998 | 31942 ft | 428 kts | 273° |
| 2026-04-21 12:18 | 50.23746 | 33.08765 | 31943 ft | 428 kts | 273° |
| 2026-04-21 12:18 | 50.23995 | 32.99552 | 31941 ft | 427 kts | 273° |
| 2026-04-21 12:19 | 50.24239 | 32.90277 | 31948 ft | 428 kts | 273° |
| 2026-04-21 12:19 | 50.24474 | 32.81031 | 31945 ft | 427 kts | 273° |
| 2026-04-21 12:20 | 50.24702 | 32.71808 | 31949 ft | 428 kts | 273° |
| 2026-04-21 12:20 | 50.24924 | 32.62519 | 31950 ft | 429 kts | 274° |
| 2026-04-21 12:21 | 50.25137 | 32.53252 | 31956 ft | 428 kts | 274° |
| 2026-04-21 12:21 | 50.25341 | 32.44029 | 31561 ft | 423 kts | 274° |
| 2026-04-21 12:21 | 50.25440 | 32.39461 | 31011 ft | 425 kts | 274° |
| 2026-04-21 12:22 | 50.25536 | 32.34917 | 30375 ft | 426 kts | 273° |
| 2026-04-21 12:22 | 50.25598 | 32.30274 | 29774 ft | 426 kts | 272° |
| 2026-04-21 12:22 | 50.25614 | 32.25708 | 29136 ft | 424 kts | 271° |
| 2026-04-21 12:22 | 50.25607 | 32.21097 | 28521 ft | 422 kts | 271° |
| 2026-04-21 12:23 | 50.25592 | 32.16572 | 27932 ft | 419 kts | 271° |
| 2026-04-21 12:23 | 50.25576 | 32.12066 | 27347 ft | 417 kts | 271° |
| 2026-04-21 12:23 | 50.25562 | 32.07580 | 26759 ft | 414 kts | 271° |
| 2026-04-21 12:23 | 50.25550 | 32.03092 | 26169 ft | 411 kts | 271° |
| 2026-04-21 12:24 | 50.25539 | 31.98660 | 25580 ft | 408 kts | 271° |
| 2026-04-21 12:24 | 50.25529 | 31.94269 | 24997 ft | 405 kts | 271° |
| 2026-04-21 12:24 | 50.25520 | 31.89957 | 24425 ft | 402 kts | 272° |
| 2026-04-21 12:24 | 50.25603 | 31.85585 | 23835 ft | 397 kts | 276° |
| 2026-04-21 12:25 | 50.25984 | 31.81395 | 23272 ft | 391 kts | 285° |
| 2026-04-21 12:25 | 50.26779 | 31.77353 | 22710 ft | 386 kts | 292° |
| 2026-04-21 12:25 | 50.27781 | 31.73494 | 22159 ft | 382 kts | 295° |
| 2026-04-21 12:25 | 50.28859 | 31.69743 | 21608 ft | 378 kts | 296° |
| 2026-04-21 12:26 | 50.29954 | 31.66059 | 21068 ft | 374 kts | 297° |
| 2026-04-21 12:26 | 50.31037 | 31.62422 | 20528 ft | 371 kts | 297° |
| 2026-04-21 12:26 | 50.32117 | 31.58764 | 19986 ft | 368 kts | 296° |
| 2026-04-21 12:26 | 50.33173 | 31.55149 | 19444 ft | 365 kts | 296° |
| 2026-04-21 12:27 | 50.34198 | 31.51607 | 18916 ft | 362 kts | 296° |
| 2026-04-21 12:27 | 50.35231 | 31.48013 | 18383 ft | 358 kts | 296° |
| 2026-04-21 12:27 | 50.36230 | 31.44520 | 17860 ft | 355 kts | 296° |
| 2026-04-21 12:27 | 50.37235 | 31.40988 | 17325 ft | 352 kts | 296° |
| 2026-04-21 12:28 | 50.38224 | 31.37498 | 16808 ft | 349 kts | 296° |
| 2026-04-21 12:28 | 50.39194 | 31.34070 | 16274 ft | 347 kts | 295° |
| 2026-04-21 12:28 | 50.40172 | 31.30637 | 15756 ft | 344 kts | 295° |
| 2026-04-21 12:28 | 50.41133 | 31.27275 | 15253 ft | 341 kts | 296° |
| 2026-04-21 12:29 | 50.42098 | 31.23903 | 14733 ft | 338 kts | 296° |
| 2026-04-21 12:29 | 50.43058 | 31.20545 | 14260 ft | 334 kts | 296° |
| 2026-04-21 12:29 | 50.43984 | 31.17289 | 14020 ft | 324 kts | 296° |
| 2026-04-21 12:29 | 50.44878 | 31.14136 | 13911 ft | 310 kts | 296° |
| 2026-04-21 12:30 | 50.45738 | 31.11099 | 13801 ft | 298 kts | 296° |
| 2026-04-21 12:30 | 50.46580 | 31.08208 | 13683 ft | 286 kts | 299° |
| 2026-04-21 12:30 | 50.47629 | 31.05680 | 13565 ft | 272 kts | 314° |
| 2026-04-21 12:30 | 50.49150 | 31.04055 | 13317 ft | 263 kts | 341° |
| 2026-04-21 12:31 | 50.50939 | 31.03680 | 12986 ft | 261 kts | 2° |
| 2026-04-21 12:31 | 50.52746 | 31.03892 | 12681 ft | 259 kts | 2° |
| 2026-04-21 12:31 | 50.54507 | 31.04043 | 12379 ft | 256 kts | 1° |
| 2026-04-21 12:31 | 50.56300 | 31.04151 | 12076 ft | 254 kts | 1° |
| 2026-04-21 12:32 | 50.58040 | 31.04255 | 11765 ft | 252 kts | 1° |
| 2026-04-21 12:32 | 50.59768 | 31.04372 | 11489 ft | 249 kts | 1° |
| 2026-04-21 12:32 | 50.61500 | 31.04496 | 11194 ft | 246 kts | 1° |
| 2026-04-21 12:32 | 50.63203 | 31.04631 | 10906 ft | 244 kts | 1° |
| 2026-04-21 12:33 | 50.64880 | 31.04766 | 10621 ft | 241 kts | 1° |
| 2026-04-21 12:33 | 50.66547 | 31.04898 | 10338 ft | 239 kts | 1° |
| 2026-04-21 12:33 | 50.68215 | 31.05027 | 10052 ft | 237 kts | 1° |
| 2026-04-21 12:33 | 50.69829 | 31.05146 | 9781 ft | 234 kts | 1° |
| 2026-04-21 12:34 | 50.71453 | 31.05259 | 9502 ft | 231 kts | 1° |
| 2026-04-21 12:34 | 50.73047 | 31.05366 | 9207 ft | 230 kts | 1° |
| 2026-04-21 12:34 | 50.74632 | 31.05477 | 8945 ft | 227 kts | 1° |
| 2026-04-21 12:34 | 50.76211 | 31.05588 | 8681 ft | 224 kts | 1° |
| 2026-04-21 12:35 | 50.77755 | 31.05635 | 8404 ft | 222 kts | 355° |
| 2026-04-21 12:35 | 50.79227 | 31.05040 | 8148 ft | 222 kts | 332° |
| 2026-04-21 12:35 | 50.80397 | 31.03385 | 7894 ft | 232 kts | 308° |
| 2026-04-21 12:35 | 50.81158 | 31.01126 | 7620 ft | 234 kts | 291° |
| 2026-04-21 12:36 | 50.81409 | 30.98611 | 7352 ft | 236 kts | 273° |
| 2026-04-21 12:36 | 50.81031 | 30.96101 | 7088 ft | 239 kts | 244° |
| 2026-04-21 12:36 | 50.79959 | 30.94063 | 6818 ft | 245 kts | 222° |
| 2026-04-21 12:36 | 50.78522 | 30.92616 | 6539 ft | 250 kts | 202° |
| 2026-04-21 12:37 | 50.76836 | 30.92132 | 6283 ft | 247 kts | 182° |
| 2026-04-21 12:37 | 50.75111 | 30.92112 | 6007 ft | 246 kts | 180° |
| 2026-04-21 12:37 | 50.73402 | 30.92090 | 5736 ft | 244 kts | 181° |
| 2026-04-21 12:37 | 50.71732 | 30.92004 | 5470 ft | 242 kts | 182° |
| 2026-04-21 12:38 | 50.70059 | 30.91882 | 5202 ft | 241 kts | 183° |
| 2026-04-21 12:38 | 50.68379 | 30.91746 | 4946 ft | 242 kts | 184° |
| 2026-04-21 12:38 | 50.66690 | 30.91619 | 4672 ft | 245 kts | 183° |
| 2026-04-21 12:38 | 50.64990 | 30.91487 | 4399 ft | 243 kts | 183° |
| 2026-04-21 12:39 | 50.63326 | 30.91358 | 4135 ft | 242 kts | 183° |
| 2026-04-21 12:39 | 50.61649 | 30.91257 | 3953 ft | 239 kts | 179° |
| 2026-04-21 12:39 | 50.60005 | 30.91341 | 3952 ft | 235 kts | 176° |
| 2026-04-21 12:39 | 50.58400 | 30.91520 | 3954 ft | 230 kts | 175° |
| 2026-04-21 12:40 | 50.56794 | 30.91709 | 3956 ft | 231 kts | 175° |
| 2026-04-21 12:40 | 50.55201 | 30.91885 | 3955 ft | 230 kts | 175° |
| 2026-04-21 12:40 | 50.53588 | 30.91975 | 3952 ft | 226 kts | 180° |
| 2026-04-21 12:40 | 50.52083 | 30.91870 | 3775 ft | 217 kts | 184° |
| 2026-04-21 12:41 | 50.50603 | 30.91716 | 3367 ft | 211 kts | 183° |
| 2026-04-21 12:41 | 50.49180 | 30.91605 | 3048 ft | 201 kts | 182° |
| 2026-04-21 12:41 | 50.47827 | 30.91514 | 2794 ft | 187 kts | 182° |
| 2026-04-21 12:41 | 50.46569 | 30.91421 | 2535 ft | 174 kts | 183° |
| 2026-04-21 12:42 | 50.45410 | 30.91334 | 2304 ft | 162 kts | 182° |
| 2026-04-21 12:42 | 50.44291 | 30.91252 | 2068 ft | 160 kts | 182° |
| 2026-04-21 12:42 | 50.43195 | 30.91172 | 1853 ft | 159 kts | 182° |
| 2026-04-21 12:42 | 50.42091 | 30.91089 | 1634 ft | 158 kts | 182° |
| 2026-04-21 12:43 | 50.40987 | 30.91009 | 1412 ft | 157 kts | 182° |
| 2026-04-21 12:43 | 50.39907 | 30.90929 | 1203 ft | 156 kts | 182° |
| 2026-04-21 12:43 | 50.38822 | 30.90849 | 988 ft | 156 kts | 182° |
| 2026-04-21 12:43 | 50.37731 | 30.90771 | 772 ft | 155 kts | 182° |
| 2026-04-21 12:44 | 50.36666 | 30.90689 | 567 ft | 154 kts | 182° |
| 2026-04-21 12:44 | 50.35607 | 30.90616 | 401 ft | 148 kts | 182° |
| 2026-04-21 12:44 | 50.34967 | 30.90570 | 404 ft | 114 kts | 183° |